Elm Grove, West Virginia
Current Conditions -  °F | °C
As of 5:53 AM on Friday 28 Nov 2014 (Local Time) from KHLG Reporting Station
Overcast Overcast  
Wind Chill: 18°   Ceiling: 5000
Heat Index: 26°   Visibility: 10mi
Dew Point: 19°   Wind: 8mph
Humidity: 75%   Direction: 290°WNW
Pressure: 30.29"   Gusts: NA
Location:  40.0729°N, 80.6524°W
Report Text: KHLG 281053Z AUTO 29007KT 10SM OVC050 M03/M07 A3029 RMK AO2 SNB00E10 SLP274 P0000 T10331072
Loading
Personal Weather Stations






























Interactive Weather Map New forecast layout! Learn more

10-Day Weather Forecast

Advertisements
Track Severe Weather on mobile